Terminal Aerodrome Forecast
Issued by NWS

Home | Current Version | Previous Version | Text Only | Print | Product List | Glossary Off
Versions: 1 2 3 4 5 6 7 8 9 10 11 12 13 14 15 16 17 18 19 20 21 22 23 24

000
FTUS43 KOAX 250532
TAFCDR
TAF
KCDR 250532Z 2506/2606 13008KT P6SM VCTS SCT010CB BKN035
     FM250800 35005KT 4SM -RA BR OVC007
     FM251500 36005KT 5SM -RA BR OVC015
     FM251900 01010KT P6SM VCTS BKN025CB
     FM252100 02010KT 6SM -TSRA BKN035CB=

USA.gov is the U.S. government's official web portal to all federal, state and local government web resources and services.